createdAt,value
2018-06-03T00:00:29.953Z,14.78
2018-06-03T00:02:58.654Z,14.58
2018-06-03T00:05:27.538Z,14.62
2018-06-03T00:07:56.307Z,14.74
2018-06-03T00:10:24.988Z,14.77
2018-06-03T00:12:54.080Z,14.78
2018-06-03T00:15:22.742Z,14.52
2018-06-03T00:17:51.421Z,14.54
2018-06-03T00:20:29.864Z,14.48
2018-06-03T00:22:58.598Z,14.45
2018-06-03T00:25:27.338Z,14.46
2018-06-03T00:27:56.128Z,14.28
2018-06-03T00:30:24.807Z,14.13
2018-06-03T00:32:53.481Z,14.35
2018-06-03T00:35:22.133Z,14.49
2018-06-03T00:37:50.832Z,14.48
2018-06-03T00:40:19.557Z,14.48
2018-06-03T00:42:48.242Z,14.55
2018-06-03T00:45:16.937Z,14.37
2018-06-03T00:47:46.645Z,14.30
2018-06-03T00:50:15.375Z,14.18
2018-06-03T00:52:44.127Z,14.14
2018-06-03T00:55:12.803Z,14.39
2018-06-03T00:57:41.599Z,14.30
2018-06-03T01:00:10.158Z,14.10
2018-06-03T01:02:38.859Z,14.03
2018-06-03T01:05:07.542Z,14.04
2018-06-03T01:07:36.212Z,14.04
2018-06-03T01:10:05.018Z,14.13
2018-06-03T01:12:33.665Z,13.82
2018-06-03T01:15:02.322Z,13.72
2018-06-03T01:17:31.050Z,13.72
2018-06-03T01:19:59.697Z,13.78
2018-06-03T01:22:28.447Z,14.00
2018-06-03T01:24:57.207Z,14.17
2018-06-03T01:27:25.855Z,14.09
2018-06-03T01:29:55.505Z,14.12
2018-06-03T01:32:24.194Z,13.81
2018-06-03T01:34:52.944Z,13.97
2018-06-03T01:37:21.888Z,14.00
2018-06-03T01:39:50.579Z,14.02
2018-06-03T01:42:19.219Z,13.94
2018-06-03T01:44:47.895Z,13.91
2018-06-03T01:47:16.644Z,13.94
2018-06-03T01:49:45.624Z,13.96
2018-06-03T01:52:14.202Z,13.90
2018-06-03T01:54:42.956Z,13.71
2018-06-03T01:57:11.700Z,13.74
2018-06-03T01:59:40.407Z,13.77
2018-06-03T02:02:09.063Z,13.89
2018-06-03T02:04:37.785Z,13.94
2018-06-03T02:07:06.437Z,13.72
2018-06-03T02:09:35.117Z,13.71
2018-06-03T02:12:03.919Z,13.48
2018-06-03T02:14:32.670Z,13.24
2018-06-03T02:17:01.350Z,13.25
2018-06-03T02:19:29.974Z,13.15
2018-06-03T02:21:58.703Z,13.28
2018-06-03T02:24:27.439Z,13.44
2018-06-03T02:26:56.233Z,13.11
2018-06-03T02:29:24.915Z,13.42
2018-06-03T02:31:53.526Z,13.67
2018-06-03T02:34:22.157Z,13.55
2018-06-03T02:36:50.867Z,13.66
2018-06-03T02:39:19.518Z,13.66
2018-06-03T02:41:48.245Z,13.52
2018-06-03T02:44:16.923Z,13.46
2018-06-03T02:46:45.818Z,13.25
2018-06-03T02:49:14.474Z,13.15
2018-06-03T02:51:43.203Z,13.10
2018-06-03T02:54:11.933Z,13.18
2018-06-03T02:56:40.629Z,13.27
2018-06-03T02:59:09.538Z,13.42
2018-06-03T03:01:38.217Z,13.45
2018-06-03T06:13:28.932Z,16.09
2018-06-03T06:15:57.429Z,16.22
2018-06-03T06:18:25.903Z,16.17
2018-06-03T06:20:54.726Z,16.34
2018-06-03T06:23:23.190Z,16.19
2018-06-03T06:25:51.707Z,16.21
2018-06-03T06:28:20.182Z,16.29
2018-06-03T06:30:48.689Z,16.41
2018-06-03T06:33:17.169Z,16.61
2018-06-03T06:35:45.940Z,16.69
2018-06-03T06:38:15.166Z,16.74
2018-06-03T06:40:43.725Z,16.84
2018-06-03T06:43:12.171Z,16.92
2018-06-03T06:45:40.676Z,17.01
2018-06-03T06:48:09.165Z,17.17
2018-06-03T06:50:37.667Z,17.26
2018-06-03T06:53:06.182Z,17.43
2018-06-03T06:55:34.670Z,17.49
2018-06-03T06:58:03.150Z,17.61
2018-06-03T07:00:31.665Z,17.74
2018-06-03T07:03:00.143Z,17.86
2018-06-03T07:05:28.950Z,18.02
2018-06-03T07:07:57.469Z,18.07
2018-06-03T07:10:26.007Z,18.23
2018-06-03T07:12:54.481Z,18.30
2018-06-03T07:15:23.389Z,18.36
2018-06-03T07:17:51.886Z,18.45
2018-06-03T07:20:20.364Z,18.58
2018-06-03T07:22:49.182Z,18.64
2018-06-03T07:25:17.699Z,18.69
2018-06-03T07:27:46.211Z,18.82
2018-06-03T07:30:15.374Z,18.85
2018-06-03T07:32:43.886Z,18.94
2018-06-03T07:35:12.368Z,19.07
2018-06-03T07:37:41.467Z,19.10
2018-06-03T07:40:09.949Z,19.14
2018-06-03T07:42:38.493Z,19.29
2018-06-03T07:45:07.015Z,19.45
2018-06-03T07:47:35.519Z,19.46
2018-06-03T07:50:04.059Z,19.48
2018-06-03T07:52:32.549Z,19.67
2018-06-03T07:55:01.062Z,19.63
2018-06-03T07:57:29.575Z,19.56
2018-06-03T07:59:58.125Z,19.63
2018-06-03T08:02:26.639Z,19.74
2018-06-03T08:04:56.296Z,19.89
2018-06-03T08:07:29.624Z,20.01
2018-06-03T08:09:58.122Z,20.17
2018-06-03T08:12:26.736Z,20.14
2018-06-03T08:14:55.248Z,20.30
2018-06-03T08:17:24.914Z,20.18
2018-06-03T08:19:53.386Z,20.29
2018-06-03T08:22:21.891Z,20.47
2018-06-03T08:24:50.371Z,20.41
2018-06-03T08:27:18.879Z,20.56
2018-06-03T08:29:47.407Z,20.50
2018-06-03T08:32:16.255Z,20.54
2018-06-03T08:34:44.749Z,20.67
2018-06-03T08:37:13.259Z,20.91
2018-06-03T08:39:41.739Z,20.97
2018-06-03T08:42:10.271Z,21.03
2018-06-03T08:44:38.786Z,21.13
2018-06-03T08:47:07.262Z,21.28
2018-06-03T08:49:35.778Z,21.25
2018-06-03T08:52:04.315Z,21.37
2018-06-03T08:54:32.815Z,21.29
2018-06-03T08:57:01.302Z,21.41
2018-06-03T08:59:29.808Z,21.64
2018-06-03T09:01:58.315Z,21.67
2018-06-03T09:04:26.811Z,21.64
2018-06-03T09:06:55.301Z,21.55
2018-06-03T09:09:23.802Z,21.55
2018-06-03T09:11:52.293Z,21.67
2018-06-03T09:14:20.791Z,21.72
2018-06-03T09:16:51.490Z,21.81
2018-06-03T09:19:20.141Z,21.90
2018-06-03T09:21:48.608Z,21.88
2018-06-03T09:24:17.123Z,21.92
2018-06-03T09:26:47.612Z,21.79
2018-06-03T09:29:16.416Z,21.81
2018-06-03T09:31:44.884Z,22.09
2018-06-03T09:34:13.379Z,22.10
2018-06-03T09:36:41.859Z,22.11
2018-06-03T09:39:11.367Z,22.03
2018-06-03T09:41:43.287Z,22.10
2018-06-03T09:44:11.795Z,22.22
2018-06-03T09:46:40.271Z,22.15
2018-06-03T09:49:09.493Z,22.34
2018-06-03T09:51:37.974Z,22.60
2018-06-03T09:54:06.798Z,22.59
2018-06-03T09:56:35.555Z,22.56
2018-06-03T09:59:04.083Z,22.75
2018-06-03T10:01:32.567Z,22.73
2018-06-03T10:04:01.413Z,22.67
2018-06-03T10:06:29.886Z,22.90
2018-06-03T10:08:59.525Z,22.77
2018-06-03T10:11:28.311Z,22.73
2018-06-03T10:13:56.823Z,23.10
2018-06-03T10:16:25.319Z,23.08
2018-06-03T10:18:53.842Z,23.01
2018-06-03T10:21:22.371Z,23.16
2018-06-03T10:23:50.885Z,22.95
2018-06-03T10:26:19.354Z,22.79
2018-06-03T10:28:47.866Z,22.93
2018-06-03T10:31:27.685Z,22.89
2018-06-03T10:33:56.550Z,23.09
2018-06-03T10:36:25.954Z,23.25
2018-06-03T10:38:54.735Z,23.09
2018-06-03T10:41:23.223Z,23.54
2018-06-03T10:43:51.711Z,23.50
2018-06-03T10:46:20.223Z,23.45
2018-06-03T10:48:48.682Z,23.49
2018-06-03T10:51:17.803Z,23.55
2018-06-03T10:53:48.567Z,23.68
2018-06-03T10:56:17.141Z,23.82
2018-06-03T10:58:45.635Z,23.98
2018-06-03T11:01:14.139Z,24.19
2018-06-03T11:03:42.637Z,24.05
2018-06-03T11:06:11.164Z,24.13
2018-06-03T11:08:39.646Z,24.15
2018-06-03T11:11:08.178Z,24.28
2018-06-03T11:13:36.654Z,24.42
2018-06-03T11:16:05.171Z,24.37
2018-06-03T11:18:33.647Z,24.46
2018-06-03T11:21:02.155Z,24.53
2018-06-03T11:23:30.615Z,24.80
2018-06-03T11:26:00.636Z,24.68
2018-06-03T11:28:29.130Z,24.73
2018-06-03T11:30:57.634Z,24.67
2018-06-03T11:33:26.130Z,24.49
2018-06-03T11:35:54.642Z,24.60
2018-06-03T11:38:23.106Z,24.83
2018-06-03T11:40:51.612Z,24.56
2018-06-03T11:43:20.079Z,24.64
2018-06-03T11:45:48.575Z,24.64
2018-06-03T11:48:17.374Z,24.79
2018-06-03T11:50:45.862Z,24.93
2018-06-03T11:53:14.359Z,24.74
2018-06-03T11:55:42.858Z,24.89
2018-06-03T11:59:47.547Z,25.16
2018-06-03T12:02:17.487Z,25.03
2018-06-03T12:04:45.953Z,25.16
2018-06-03T12:07:14.462Z,25.29
2018-06-03T12:09:42.926Z,25.32
2018-06-03T12:12:11.431Z,25.28
2018-06-03T12:14:39.894Z,25.60
2018-06-03T12:17:08.394Z,25.43
2018-06-03T12:19:36.854Z,25.47
2018-06-03T12:22:08.394Z,25.33
2018-06-03T12:24:36.875Z,25.30
2018-06-03T12:27:05.386Z,25.43
2018-06-03T12:29:33.860Z,25.38
2018-06-03T12:32:02.363Z,25.31
2018-06-03T12:34:30.838Z,25.03
2018-06-03T12:36:59.332Z,25.07
2018-06-03T12:39:27.799Z,25.19
2018-06-03T12:41:56.372Z,25.39
2018-06-03T12:44:24.806Z,25.69
2018-06-03T12:46:53.306Z,25.45
2018-06-03T12:49:21.782Z,25.78
2018-06-03T12:51:50.280Z,25.92
2018-06-03T12:54:18.947Z,25.69
2018-06-03T12:56:47.438Z,25.66
2018-06-03T12:59:21.823Z,25.86
2018-06-03T13:01:57.675Z,25.92
2018-06-03T13:04:34.029Z,25.97
2018-06-03T13:07:07.556Z,25.94
2018-06-03T13:09:41.021Z,25.95
2018-06-03T13:12:09.738Z,26.06
2018-06-03T13:14:38.222Z,25.89
2018-06-03T13:17:06.767Z,25.97
2018-06-03T13:19:35.248Z,26.00
2018-06-03T13:22:03.751Z,25.91
2018-06-03T13:24:32.211Z,26.17
2018-06-03T13:27:00.707Z,26.43
2018-06-03T13:29:29.202Z,26.27
2018-06-03T13:31:57.762Z,26.64
2018-06-03T13:34:26.195Z,26.82
2018-06-03T13:36:54.662Z,26.57
2018-06-03T13:39:23.166Z,26.62
2018-06-03T13:41:51.638Z,26.84
2018-06-03T13:44:20.141Z,26.86
2018-06-03T13:46:49.012Z,26.91
2018-06-03T13:49:17.510Z,27.04
2018-06-03T13:51:45.987Z,26.92
2018-06-03T13:54:14.525Z,26.77
2018-06-03T13:56:42.993Z,26.90
2018-06-03T13:59:11.484Z,26.97
2018-06-03T14:01:39.947Z,26.76
2018-06-03T14:04:08.446Z,26.59
2018-06-03T14:06:36.910Z,26.70
2018-06-03T14:09:06.851Z,26.94
2018-06-03T14:11:35.311Z,26.86
2018-06-03T14:14:03.814Z,26.74
2018-06-03T14:16:32.278Z,26.81
2018-06-03T14:19:00.782Z,27.28
2018-06-03T14:21:29.261Z,27.45
2018-06-03T14:23:57.754Z,27.50
2018-06-03T14:26:26.217Z,27.57
2018-06-03T14:28:54.710Z,27.36
2018-06-03T14:31:23.194Z,27.15
2018-06-03T14:33:54.927Z,27.36
2018-06-03T14:36:23.569Z,27.58
2018-06-03T14:38:52.114Z,27.84
2018-06-03T14:41:20.606Z,28.33
2018-06-03T14:43:49.290Z,28.23
2018-06-03T14:46:17.761Z,27.89
2018-06-03T14:48:46.596Z,28.18
2018-06-03T14:51:15.075Z,28.48
2018-06-03T14:53:43.598Z,28.58
2018-06-03T14:56:12.082Z,28.01
2018-06-03T14:58:40.556Z,27.86
2018-06-03T15:01:09.022Z,28.14
2018-06-03T15:03:37.520Z,28.05
2018-06-03T15:06:06.379Z,28.12
2018-06-03T15:08:34.870Z,28.50
2018-06-03T15:11:03.326Z,28.83
2018-06-03T15:13:31.814Z,28.78
2018-06-03T15:16:00.279Z,28.93
2018-06-03T15:18:28.769Z,28.65
2018-06-03T15:20:57.266Z,28.35
2018-06-03T15:23:25.767Z,27.95
2018-06-03T15:25:54.430Z,28.00
2018-06-03T15:28:22.913Z,28.36
2018-06-03T15:30:51.756Z,28.70
2018-06-03T15:33:20.234Z,28.58
2018-06-03T15:35:49.433Z,28.54
2018-06-03T15:38:17.907Z,28.37
2018-06-03T15:40:46.394Z,28.65
2018-06-03T15:43:14.860Z,28.71
2018-06-03T15:45:43.354Z,28.99
2018-06-03T15:48:11.818Z,28.98
2018-06-03T15:50:40.337Z,29.20
2018-06-03T15:53:08.835Z,28.90
2018-06-03T15:55:37.340Z,28.84
2018-06-03T15:58:05.809Z,29.09
2018-06-03T16:00:34.303Z,29.23
2018-06-03T16:03:02.847Z,28.85
2018-06-03T16:05:31.317Z,29.06
2018-06-03T16:08:00.156Z,29.40
2018-06-03T16:10:28.663Z,29.61
2018-06-03T16:12:57.175Z,29.68
2018-06-03T16:15:25.681Z,29.67
2018-06-03T16:17:54.149Z,29.87
2018-06-03T16:20:22.653Z,29.66
2018-06-03T16:22:51.145Z,29.64
2018-06-03T16:25:19.642Z,29.59
2018-06-03T16:27:48.113Z,30.18
2018-06-03T16:30:16.623Z,29.67
2018-06-03T16:32:45.083Z,29.84
2018-06-03T16:35:14.707Z,29.91
2018-06-03T16:37:43.264Z,30.20
2018-06-03T16:40:11.740Z,30.40
2018-06-03T16:42:40.231Z,32.33
2018-06-03T16:45:10.898Z,36.67
2018-06-03T16:47:39.401Z,37.80
2018-06-03T16:50:07.919Z,37.12
2018-06-03T16:52:37.326Z,34.91
2018-06-03T16:55:05.875Z,37.54
2018-06-03T16:57:35.384Z,36.89
2018-06-03T17:00:04.262Z,35.32
2018-06-03T17:02:32.982Z,34.97
2018-06-03T17:05:07.271Z,32.69
2018-06-03T17:07:37.175Z,30.74
2018-06-03T17:10:05.651Z,29.47
2018-06-03T17:12:34.150Z,28.94
2018-06-03T17:15:02.643Z,28.97
2018-06-03T17:17:31.887Z,28.72
2018-06-03T17:20:00.346Z,28.53
2018-06-03T17:22:28.848Z,28.17
2018-06-03T17:24:57.314Z,27.90
2018-06-03T17:27:26.395Z,27.82
2018-06-03T17:29:54.849Z,27.45
2018-06-03T17:32:23.341Z,27.69
2018-06-03T17:34:52.215Z,27.53
2018-06-03T17:37:20.727Z,28.08
2018-06-03T17:39:49.851Z,29.33
2018-06-03T17:42:18.356Z,29.48
2018-06-03T17:44:46.890Z,29.98
2018-06-03T17:47:16.156Z,28.67
2018-06-03T17:49:44.674Z,27.91
2018-06-03T17:52:13.167Z,27.53
2018-06-03T17:54:41.653Z,27.44
2018-06-03T17:57:10.273Z,28.07
2018-06-03T17:59:38.882Z,29.10
2018-06-03T18:02:07.402Z,28.12
2018-06-03T18:04:35.910Z,27.85
2018-06-03T18:07:04.389Z,27.21
2018-06-03T18:09:32.891Z,26.94
2018-06-03T18:12:01.362Z,26.78
2018-06-03T18:14:29.870Z,26.65
2018-06-03T18:16:58.365Z,26.08
2018-06-03T18:19:26.850Z,26.20
2018-06-03T18:21:57.111Z,26.35
2018-06-03T18:24:25.609Z,26.19
2018-06-03T18:26:54.078Z,26.14
2018-06-03T18:29:22.568Z,26.03
2018-06-03T18:31:52.419Z,26.13
2018-06-03T18:34:21.666Z,25.84
2018-06-03T18:36:50.446Z,25.69
2018-06-03T18:39:18.954Z,25.59
2018-06-03T18:41:48.715Z,25.79
2018-06-03T18:44:17.212Z,25.42
2018-06-03T18:46:46.344Z,25.17
2018-06-03T18:49:14.847Z,25.15
2018-06-03T18:51:53.931Z,25.00
2018-06-03T18:54:22.559Z,24.92
2018-06-03T18:56:51.667Z,24.67
2018-06-03T18:59:20.182Z,24.65
2018-06-03T19:01:48.666Z,24.40
2018-06-03T19:04:17.246Z,24.15
2018-06-03T19:06:47.675Z,24.00
2018-06-03T19:09:16.142Z,23.85
2018-06-03T19:11:52.929Z,23.58
2018-06-03T19:14:21.657Z,23.65
2018-06-03T19:16:50.131Z,23.52
2018-06-03T19:19:18.614Z,23.58
2018-06-03T19:21:47.110Z,23.32
2018-06-03T19:24:15.575Z,23.03
2018-06-03T19:27:08.355Z,23.06
2018-06-03T19:29:41.611Z,22.96
2018-06-03T19:32:19.388Z,22.75
2018-06-03T19:34:49.475Z,22.71
2018-06-03T19:37:18.039Z,22.39
2018-06-03T19:39:46.566Z,22.27
2018-06-03T19:42:15.163Z,22.23
2018-06-03T19:44:43.794Z,22.28
2018-06-03T19:47:12.513Z,22.00
2018-06-03T19:49:41.206Z,21.89
2018-06-03T19:52:09.839Z,21.75
2018-06-03T19:54:38.566Z,21.61
2018-06-03T19:57:07.086Z,21.60
2018-06-03T19:59:35.560Z,21.62
2018-06-03T20:02:04.075Z,21.61
2018-06-03T20:04:32.624Z,21.30
2018-06-03T20:07:01.138Z,21.06
2018-06-03T20:09:29.678Z,21.10
2018-06-03T20:11:59.198Z,21.14
2018-06-03T20:14:27.662Z,21.07
2018-06-03T20:16:56.228Z,21.16
2018-06-03T20:19:24.711Z,21.15
2018-06-03T20:21:53.282Z,21.13
2018-06-03T20:24:21.751Z,21.03
2018-06-03T20:26:50.581Z,20.89
2018-06-03T20:29:19.113Z,20.67
2018-06-03T20:31:47.578Z,20.76
2018-06-03T20:34:16.095Z,20.71
2018-06-03T20:36:44.566Z,20.67
2018-06-03T20:39:13.119Z,20.71
2018-06-03T20:41:41.634Z,20.54
2018-06-03T20:44:14.591Z,20.53
2018-06-03T20:46:43.322Z,20.34
2018-06-03T20:49:11.886Z,20.17
2018-06-03T20:51:41.049Z,20.17
2018-06-03T20:54:12.662Z,19.95
2018-06-03T20:56:42.798Z,19.92
2018-06-03T20:59:11.381Z,19.89
2018-06-03T21:01:40.517Z,19.65
2018-06-03T21:04:09.105Z,19.64
2018-06-03T21:06:37.579Z,19.60
2018-06-03T21:09:08.479Z,19.74
2018-06-03T21:11:36.990Z,19.81
2018-06-03T21:14:05.582Z,19.51
2018-06-03T21:16:34.046Z,19.26
2018-06-03T21:19:02.542Z,19.14
2018-06-03T21:21:31.026Z,19.01
2018-06-03T21:23:59.530Z,18.64
2018-06-03T21:26:28.007Z,18.45
2018-06-03T21:28:56.508Z,18.64
2018-06-03T21:31:25.040Z,18.73
2018-06-03T21:34:00.899Z,18.54
2018-06-03T21:36:30.582Z,18.63
2018-06-03T21:39:00.409Z,18.75
2018-06-03T21:41:34.877Z,18.76
2018-06-03T21:46:50.742Z,18.41
2018-06-03T21:49:20.527Z,18.66
2018-06-03T21:51:50.288Z,18.41
2018-06-03T21:54:20.203Z,18.56
2018-06-03T21:56:50.661Z,18.65
2018-06-03T21:59:23.987Z,18.87
2018-06-03T22:01:54.521Z,18.78
2018-06-03T22:04:23.836Z,18.59
2018-06-03T22:06:54.959Z,18.34
2018-06-03T22:09:28.426Z,18.44
2018-06-03T22:11:57.733Z,18.35
2018-06-03T22:14:36.004Z,18.27
2018-06-03T22:17:05.818Z,18.23
2018-06-03T22:19:36.293Z,17.95
2018-06-03T22:22:12.294Z,17.83
2018-06-03T22:24:43.358Z,17.79
2018-06-03T22:27:13.272Z,18.02
2018-06-03T22:29:46.201Z,17.67
2018-06-03T22:32:19.013Z,17.44
2018-06-03T22:34:48.487Z,17.57
2018-06-03T22:37:17.598Z,17.84
2018-06-03T22:39:48.431Z,17.74
2018-06-03T22:42:17.542Z,17.59
2018-06-03T22:44:56.825Z,17.51
2018-06-03T22:47:25.505Z,17.11
2018-06-03T22:49:53.974Z,17.16
2018-06-03T22:52:28.514Z,17.45
2018-06-03T22:54:58.536Z,17.46
2018-06-03T22:57:54.776Z,17.19
2018-06-03T23:00:31.746Z,17.22
2018-06-03T23:03:12.253Z,17.29
2018-06-03T23:05:46.446Z,17.13
2018-06-03T23:08:19.636Z,17.33
2018-06-03T23:10:52.345Z,17.13
2018-06-03T23:13:24.123Z,17.11
2018-06-03T23:15:57.513Z,17.15
2018-06-03T23:18:28.210Z,17.25
2018-06-03T23:21:01.490Z,17.32
2018-06-03T23:23:33.332Z,17.31
2018-06-03T23:26:05.509Z,17.25
2018-06-03T23:28:34.034Z,17.16
2018-06-03T23:31:02.618Z,17.08
2018-06-03T23:33:31.087Z,17.15
2018-06-03T23:35:59.594Z,17.16
2018-06-03T23:38:28.074Z,17.29
2018-06-03T23:40:56.552Z,17.09
2018-06-03T23:43:25.053Z,17.03
2018-06-03T23:45:53.527Z,17.00
2018-06-03T23:48:22.027Z,16.88
2018-06-03T23:50:51.551Z,16.69
2018-06-03T23:53:20.075Z,16.80
2018-06-03T23:55:48.605Z,16.88
2018-06-03T23:58:17.106Z,16.89
